TimeEDT,TemperatureF,Dew PointF,Humidity,Sea Level PressureIn,VisibilityMPH,Wind Direction,Wind SpeedMPH,Gust SpeedMPH,PrecipitationIn,Events,Conditions,WindDirDegrees,DateUTC
12:16 AM,16.5,7.5,68,30.01,10.0,West,6.9,-,N/A,,Clear,270,2013-04-02 04:16:00
12:37 AM,16.3,8.1,70,30.01,10.0,West,4.6,-,N/A,,Clear,280,2013-04-02 04:37:00
12:57 AM,15.3,7.7,72,30.01,10.0,West,4.6,-,N/A,,Clear,280,2013-04-02 04:57:00
1:16 AM,15.8,8.1,72,30.01,10.0,WNW,5.8,-,N/A,,Clear,300,2013-04-02 05:16:00
1:37 AM,15.6,7.7,71,30.01,10.0,WNW,8.1,-,N/A,,Clear,290,2013-04-02 05:37:00
1:57 AM,15.3,7.7,72,30.02,10.0,WNW,6.9,-,N/A,,Clear,290,2013-04-02 05:57:00
2:16 AM,14.9,7.7,73,30.02,10.0,WNW,8.1,-,N/A,,Clear,290,2013-04-02 06:16:00
2:37 AM,14.9,7.7,73,30.02,10.0,WNW,6.9,-,N/A,,Clear,290,2013-04-02 06:37:00
2:56 AM,15.1,7.7,73,30.02,10.0,West,8.1,-,N/A,,Clear,280,2013-04-02 06:56:00
3:17 AM,14.9,7.7,73,30.02,10.0,West,6.9,-,N/A,,Clear,280,2013-04-02 07:17:00
3:37 AM,14.5,7.3,73,30.02,10.0,NNW,5.8,-,N/A,,Clear,330,2013-04-02 07:37:00
3:56 AM,12.0,6.6,79,30.02,10.0,NW,4.6,-,N/A,,Scattered Clouds,310,2013-04-02 07:56:00
4:17 AM,12.9,7.0,77,30.02,10.0,WNW,6.9,-,N/A,,Scattered Clouds,290,2013-04-02 08:17:00
4:37 AM,12.9,6.8,77,30.02,10.0,NW,6.9,-,N/A,,Clear,310,2013-04-02 08:37:00
4:56 AM,12.2,6.3,77,30.02,10.0,West,5.8,-,N/A,,Clear,280,2013-04-02 08:56:00
5:17 AM,10.2,5.4,81,30.03,10.0,West,5.8,-,N/A,,Scattered Clouds,270,2013-04-02 09:17:00
5:37 AM,12.4,6.6,78,30.04,10.0,West,5.8,-,N/A,,Scattered Clouds,280,2013-04-02 09:37:00
5:56 AM,11.7,5.7,77,30.04,10.0,West,4.6,-,N/A,,Clear,280,2013-04-02 09:56:00
6:55 AM,12.2,5.0,73,30.05,10.0,WNW,5.8,-,N/A,,Clear,290,2013-04-02 10:55:00
7:50 AM,10.4,5.0,79,30.07,10.0,WNW,5.8,-,N/A,,Clear,300,2013-04-02 11:50:00
8:55 AM,17.6,8.6,68,30.09,10.0,WNW,6.9,-,N/A,,Clear,300,2013-04-02 12:55:00
9:50 AM,23.0,10.4,59,30.10,10.0,NNW,12.7,18.4,N/A,,Clear,330,2013-04-02 13:50:00
10:50 AM,24.8,10.4,54,30.10,10.0,NNW,13.8,20.7,N/A,,Clear,340,2013-04-02 14:50:00
11:50 AM,24.8,8.6,50,30.11,10.0,NNW,15.0,23.0,N/A,,Mostly Cloudy,340,2013-04-02 15:50:00
12:48 PM,26.6,6.8,43,30.12,10.0,NW,12.7,25.3,N/A,,Mostly Cloudy,310,2013-04-02 16:48:00
1:50 PM,28.4,6.8,40,30.11,10.0,NW,16.1,23.0,N/A,,Scattered Clouds,320,2013-04-02 17:50:00
2:55 PM,28.4,6.8,40,30.12,10.0,NNW,16.1,24.2,N/A,,Scattered Clouds,330,2013-04-02 18:55:00
4:50 PM,30.2,5.0,34,30.13,10.0,NNW,11.5,20.7,N/A,,Clear,340,2013-04-02 20:50:00
5:50 PM,30.2,5.0,34,30.15,10.0,NNW,12.7,20.7,N/A,,Clear,330,2013-04-02 21:50:00
6:50 PM,28.4,5.0,37,30.17,10.0,NNW,15.0,24.2,N/A,,Clear,330,2013-04-02 22:50:00
7:50 PM,26.6,-2.2,29,30.19,10.0,NNW,13.8,23.0,N/A,,Clear,330,2013-04-02 23:50:00
8:50 PM,24.8,5.0,43,30.19,10.0,NNW,8.1,-,N/A,,Clear,340,2013-04-03 00:50:00
9:50 PM,23.0,6.8,50,30.21,10.0,NNW,3.5,-,N/A,,Clear,330,2013-04-03 01:50:00
10:17 PM,22.8,6.4,50,30.22,10.0,NW,3.5,-,N/A,,Clear,320,2013-04-03 02:17:00
10:37 PM,22.5,6.8,51,30.21,10.0,NW,4.6,-,N/A,,Clear,320,2013-04-03 02:37:00
10:56 PM,21.7,7.5,54,30.22,10.0,NW,4.6,-,N/A,,Clear,320,2013-04-03 02:56:00
11:17 PM,21.2,7.7,56,30.22,10.0,NW,4.6,-,N/A,,Clear,320,2013-04-03 03:17:00
11:36 PM,20.8,8.1,58,30.22,10.0,NW,5.8,-,N/A,,Clear,320,2013-04-03 03:36:00
11:57 PM,20.7,8.4,59,30.22,10.0,NW,6.9,-,N/A,,Clear,320,2013-04-03 03:57:00